sensor_id;sensor_type;location;lat;lon;timestamp;P1;durP1;ratioP1;P2;durP2;ratioP2
65597;SDS011;52267;51.984;20.956;2023-04-26T00:01:34;8.10;;;4.30;;
65597;SDS011;52267;51.984;20.956;2023-04-26T00:04:01;7.80;;;4.60;;
65597;SDS011;52267;51.984;20.956;2023-04-26T00:06:28;9.50;;;5.00;;
65597;SDS011;52267;51.984;20.956;2023-04-26T00:08:55;11.30;;;5.00;;
65597;SDS011;52267;51.984;20.956;2023-04-26T00:11:22;10.20;;;5.60;;
65597;SDS011;52267;51.984;20.956;2023-04-26T00:13:49;7.90;;;4.60;;
65597;SDS011;52267;51.984;20.956;2023-04-26T00:16:16;9.70;;;5.30;;
65597;SDS011;52267;51.984;20.956;2023-04-26T00:18:44;10.60;;;5.70;;
65597;SDS011;52267;51.984;20.956;2023-04-26T00:21:11;8.50;;;4.20;;
65597;SDS011;52267;51.984;20.956;2023-04-26T00:23:38;11.10;;;5.60;;
65597;SDS011;52267;51.984;20.956;2023-04-26T00:26:06;12.30;;;5.70;;
65597;SDS011;52267;51.984;20.956;2023-04-26T00:28:33;12.30;;;6.00;;
65597;SDS011;52267;51.984;20.956;2023-04-26T00:31:00;15.60;;;5.70;;
65597;SDS011;52267;51.984;20.956;2023-04-26T00:33:28;11.20;;;6.10;;
65597;SDS011;52267;51.984;20.956;2023-04-26T00:35:56;8.50;;;5.40;;
65597;SDS011;52267;51.984;20.956;2023-04-26T00:38:23;10.10;;;5.10;;
65597;SDS011;52267;51.984;20.956;2023-04-26T00:40:50;12.60;;;6.20;;
65597;SDS011;52267;51.984;20.956;2023-04-26T00:43:17;11.00;;;5.10;;
65597;SDS011;52267;51.984;20.956;2023-04-26T00:45:44;10.90;;;3.70;;
65597;SDS011;52267;51.984;20.956;2023-04-26T00:48:11;8.00;;;5.50;;
65597;SDS011;52267;51.984;20.956;2023-04-26T00:50:38;10.10;;;4.90;;
65597;SDS011;52267;51.984;20.956;2023-04-26T00:53:06;8.80;;;4.40;;
65597;SDS011;52267;51.984;20.956;2023-04-26T00:55:34;10.40;;;6.00;;
65597;SDS011;52267;51.984;20.956;2023-04-26T00:58:01;13.10;;;6.00;;
65597;SDS011;52267;51.984;20.956;2023-04-26T01:00:29;14.10;;;5.60;;
65597;SDS011;52267;51.984;20.956;2023-04-26T01:02:56;10.50;;;5.40;;
65597;SDS011;52267;51.984;20.956;2023-04-26T01:05:23;10.60;;;5.90;;
65597;SDS011;52267;51.984;20.956;2023-04-26T01:07:50;10.50;;;6.20;;
65597;SDS011;52267;51.984;20.956;2023-04-26T01:10:18;10.20;;;5.60;;
65597;SDS011;52267;51.984;20.956;2023-04-26T01:12:45;8.80;;;4.70;;
65597;SDS011;52267;51.984;20.956;2023-04-26T01:15:12;12.90;;;5.50;;
65597;SDS011;52267;51.984;20.956;2023-04-26T01:17:39;11.80;;;5.30;;
65597;SDS011;52267;51.984;20.956;2023-04-26T01:20:07;9.90;;;6.30;;
65597;SDS011;52267;51.984;20.956;2023-04-26T01:22:35;16.80;;;6.20;;
65597;SDS011;52267;51.984;20.956;2023-04-26T01:25:03;11.50;;;5.70;;
65597;SDS011;52267;51.984;20.956;2023-04-26T01:27:33;12.30;;;5.90;;
65597;SDS011;52267;51.984;20.956;2023-04-26T01:30:01;12.10;;;5.70;;
65597;SDS011;52267;51.984;20.956;2023-04-26T01:32:28;10.80;;;4.90;;
65597;SDS011;52267;51.984;20.956;2023-04-26T01:34:59;15.10;;;6.80;;
65597;SDS011;52267;51.984;20.956;2023-04-26T01:37:26;10.80;;;5.50;;
65597;SDS011;52267;51.984;20.956;2023-04-26T01:39:53;11.80;;;5.80;;
65597;SDS011;52267;51.984;20.956;2023-04-26T01:42:20;12.10;;;6.00;;
65597;SDS011;52267;51.984;20.956;2023-04-26T01:44:47;10.40;;;5.20;;
65597;SDS011;52267;51.984;20.956;2023-04-26T01:47:15;13.90;;;5.50;;
65597;SDS011;52267;51.984;20.956;2023-04-26T01:49:42;10.30;;;5.40;;
65597;SDS011;52267;51.984;20.956;2023-04-26T01:52:09;10.60;;;4.70;;
65597;SDS011;52267;51.984;20.956;2023-04-26T01:54:36;13.20;;;4.70;;
65597;SDS011;52267;51.984;20.956;2023-04-26T01:57:03;13.50;;;5.80;;
65597;SDS011;52267;51.984;20.956;2023-04-26T01:59:30;12.10;;;5.70;;
65597;SDS011;52267;51.984;20.956;2023-04-26T02:01:57;8.80;;;4.80;;
65597;SDS011;52267;51.984;20.956;2023-04-26T02:04:24;9.20;;;4.70;;
65597;SDS011;52267;51.984;20.956;2023-04-26T02:06:51;8.80;;;5.20;;
65597;SDS011;52267;51.984;20.956;2023-04-26T02:09:18;12.00;;;5.80;;
65597;SDS011;52267;51.984;20.956;2023-04-26T02:11:45;12.20;;;5.80;;
65597;SDS011;52267;51.984;20.956;2023-04-26T02:14:12;15.50;;;6.10;;
65597;SDS011;52267;51.984;20.956;2023-04-26T02:16:41;9.20;;;4.40;;
65597;SDS011;52267;51.984;20.956;2023-04-26T02:19:09;11.20;;;5.60;;
65597;SDS011;52267;51.984;20.956;2023-04-26T02:22:08;10.10;;;5.40;;
65597;SDS011;52267;51.984;20.956;2023-04-26T02:24:36;9.10;;;5.00;;
65597;SDS011;52267;51.984;20.956;2023-04-26T02:27:03;13.30;;;5.20;;
65597;SDS011;52267;51.984;20.956;2023-04-26T02:29:30;10.10;;;6.70;;
65597;SDS011;52267;51.984;20.956;2023-04-26T02:31:57;12.60;;;6.10;;
65597;SDS011;52267;51.984;20.956;2023-04-26T02:34:24;11.60;;;5.80;;
65597;SDS011;52267;51.984;20.956;2023-04-26T02:36:51;13.20;;;6.80;;
65597;SDS011;52267;51.984;20.956;2023-04-26T02:39:18;13.70;;;6.30;;
65597;SDS011;52267;51.984;20.956;2023-04-26T02:41:46;15.00;;;6.00;;
65597;SDS011;52267;51.984;20.956;2023-04-26T02:44:13;15.10;;;6.50;;
65597;SDS011;52267;51.984;20.956;2023-04-26T02:46:40;11.60;;;6.40;;
65597;SDS011;52267;51.984;20.956;2023-04-26T02:49:07;15.10;;;6.80;;
65597;SDS011;52267;51.984;20.956;2023-04-26T02:51:34;13.90;;;7.50;;
65597;SDS011;52267;51.984;20.956;2023-04-26T02:54:01;17.50;;;7.10;;
65597;SDS011;52267;51.984;20.956;2023-04-26T02:56:28;15.00;;;6.90;;
65597;SDS011;52267;51.984;20.956;2023-04-26T02:58:56;13.50;;;5.90;;
65597;SDS011;52267;51.984;20.956;2023-04-26T03:01:23;12.60;;;6.80;;
65597;SDS011;52267;51.984;20.956;2023-04-26T03:03:50;11.50;;;6.10;;
65597;SDS011;52267;51.984;20.956;2023-04-26T03:06:17;15.50;;;7.20;;
65597;SDS011;52267;51.984;20.956;2023-04-26T03:08:44;12.70;;;7.10;;
65597;SDS011;52267;51.984;20.956;2023-04-26T03:11:11;14.70;;;6.70;;
65597;SDS011;52267;51.984;20.956;2023-04-26T03:13:38;11.30;;;5.90;;
65597;SDS011;52267;51.984;20.956;2023-04-26T03:16:05;13.20;;;6.20;;
65597;SDS011;52267;51.984;20.956;2023-04-26T03:18:32;12.70;;;5.60;;
65597;SDS011;52267;51.984;20.956;2023-04-26T03:20:59;10.80;;;5.80;;
65597;SDS011;52267;51.984;20.956;2023-04-26T03:23:27;20.80;;;8.00;;
65597;SDS011;52267;51.984;20.956;2023-04-26T03:25:54;14.10;;;6.50;;
65597;SDS011;52267;51.984;20.956;2023-04-26T03:28:21;10.40;;;5.80;;
65597;SDS011;52267;51.984;20.956;2023-04-26T03:30:48;13.00;;;6.10;;
65597;SDS011;52267;51.984;20.956;2023-04-26T03:33:15;12.20;;;6.10;;
65597;SDS011;52267;51.984;20.956;2023-04-26T03:35:43;13.90;;;6.50;;
65597;SDS011;52267;51.984;20.956;2023-04-26T03:38:10;12.30;;;5.30;;
65597;SDS011;52267;51.984;20.956;2023-04-26T03:40:37;9.20;;;5.20;;
65597;SDS011;52267;51.984;20.956;2023-04-26T03:43:03;9.80;;;5.30;;
65597;SDS011;52267;51.984;20.956;2023-04-26T03:45:30;13.00;;;6.30;;
65597;SDS011;52267;51.984;20.956;2023-04-26T03:47:57;11.40;;;5.70;;
65597;SDS011;52267;51.984;20.956;2023-04-26T03:50:24;8.70;;;4.80;;
65597;SDS011;52267;51.984;20.956;2023-04-26T03:52:52;15.60;;;5.50;;
65597;SDS011;52267;51.984;20.956;2023-04-26T03:55:19;12.80;;;5.40;;
65597;SDS011;52267;51.984;20.956;2023-04-26T03:57:46;9.90;;;5.10;;
65597;SDS011;52267;51.984;20.956;2023-04-26T04:00:13;9.90;;;4.50;;
65597;SDS011;52267;51.984;20.956;2023-04-26T04:02:41;6.80;;;4.30;;
65597;SDS011;52267;51.984;20.956;2023-04-26T04:05:08;10.70;;;5.40;;
65597;SDS011;52267;51.984;20.956;2023-04-26T04:07:35;11.20;;;4.80;;
65597;SDS011;52267;51.984;20.956;2023-04-26T04:10:03;7.60;;;4.30;;
65597;SDS011;52267;51.984;20.956;2023-04-26T04:12:30;8.70;;;4.80;;
65597;SDS011;52267;51.984;20.956;2023-04-26T04:14:57;11.90;;;6.00;;
65597;SDS011;52267;51.984;20.956;2023-04-26T04:17:24;9.70;;;4.90;;
65597;SDS011;52267;51.984;20.956;2023-04-26T04:19:51;12.30;;;5.00;;
65597;SDS011;52267;51.984;20.956;2023-04-26T04:22:18;13.90;;;5.80;;
65597;SDS011;52267;51.984;20.956;2023-04-26T04:24:46;13.70;;;5.40;;
65597;SDS011;52267;51.984;20.956;2023-04-26T04:27:13;11.40;;;5.60;;
65597;SDS011;52267;51.984;20.956;2023-04-26T04:29:40;9.80;;;5.50;;
65597;SDS011;52267;51.984;20.956;2023-04-26T04:32:07;10.30;;;5.20;;
65597;SDS011;52267;51.984;20.956;2023-04-26T04:34:34;11.70;;;6.50;;
65597;SDS011;52267;51.984;20.956;2023-04-26T04:37:01;11.10;;;5.90;;
65597;SDS011;52267;51.984;20.956;2023-04-26T04:39:29;13.20;;;5.60;;
65597;SDS011;52267;51.984;20.956;2023-04-26T04:41:56;10.00;;;5.70;;
65597;SDS011;52267;51.984;20.956;2023-04-26T04:44:23;16.30;;;7.10;;
65597;SDS011;52267;51.984;20.956;2023-04-26T04:46:52;15.50;;;7.20;;
65597;SDS011;52267;51.984;20.956;2023-04-26T04:49:19;8.50;;;4.40;;
65597;SDS011;52267;51.984;20.956;2023-04-26T04:51:46;11.80;;;5.60;;
65597;SDS011;52267;51.984;20.956;2023-04-26T04:54:15;9.10;;;4.80;;
65597;SDS011;52267;51.984;20.956;2023-04-26T04:56:44;8.00;;;4.00;;
65597;SDS011;52267;51.984;20.956;2023-04-26T04:59:11;10.00;;;4.40;;
65597;SDS011;52267;51.984;20.956;2023-04-26T05:01:38;10.70;;;4.40;;
65597;SDS011;52267;51.984;20.956;2023-04-26T05:04:06;13.20;;;4.70;;
65597;SDS011;52267;51.984;20.956;2023-04-26T05:06:33;11.80;;;5.30;;
65597;SDS011;52267;51.984;20.956;2023-04-26T05:09:00;8.10;;;4.50;;
65597;SDS011;52267;51.984;20.956;2023-04-26T05:11:27;10.80;;;4.40;;
65597;SDS011;52267;51.984;20.956;2023-04-26T05:13:54;12.00;;;6.00;;
65597;SDS011;52267;51.984;20.956;2023-04-26T05:16:22;14.50;;;6.80;;
65597;SDS011;52267;51.984;20.956;2023-04-26T05:18:49;10.10;;;5.50;;
65597;SDS011;52267;51.984;20.956;2023-04-26T05:21:16;11.80;;;5.60;;
65597;SDS011;52267;51.984;20.956;2023-04-26T05:23:43;11.30;;;5.00;;
65597;SDS011;52267;51.984;20.956;2023-04-26T05:26:13;10.60;;;5.00;;
65597;SDS011;52267;51.984;20.956;2023-04-26T05:28:43;12.70;;;5.50;;
65597;SDS011;52267;51.984;20.956;2023-04-26T05:31:11;11.30;;;5.40;;
65597;SDS011;52267;51.984;20.956;2023-04-26T05:33:38;11.50;;;5.00;;
65597;SDS011;52267;51.984;20.956;2023-04-26T05:36:05;12.30;;;5.60;;
65597;SDS011;52267;51.984;20.956;2023-04-26T05:38:35;9.00;;;5.10;;
65597;SDS011;52267;51.984;20.956;2023-04-26T05:41:05;10.50;;;5.10;;
65597;SDS011;52267;51.984;20.956;2023-04-26T05:43:32;9.60;;;4.80;;
65597;SDS011;52267;51.984;20.956;2023-04-26T05:45:59;9.60;;;4.70;;
65597;SDS011;52267;51.984;20.956;2023-04-26T05:48:27;10.30;;;4.70;;
65597;SDS011;52267;51.984;20.956;2023-04-26T05:50:55;7.20;;;4.10;;
65597;SDS011;52267;51.984;20.956;2023-04-26T05:53:22;11.60;;;5.10;;
65597;SDS011;52267;51.984;20.956;2023-04-26T05:55:49;12.20;;;5.20;;
65597;SDS011;52267;51.984;20.956;2023-04-26T05:58:16;8.60;;;4.40;;
65597;SDS011;52267;51.984;20.956;2023-04-26T06:00:43;10.80;;;4.80;;
65597;SDS011;52267;51.984;20.956;2023-04-26T06:03:10;8.80;;;4.50;;
65597;SDS011;52267;51.984;20.956;2023-04-26T06:05:38;10.00;;;4.50;;
65597;SDS011;52267;51.984;20.956;2023-04-26T06:08:05;7.90;;;4.20;;
65597;SDS011;52267;51.984;20.956;2023-04-26T06:10:33;9.40;;;3.90;;
65597;SDS011;52267;51.984;20.956;2023-04-26T06:13:01;9.10;;;4.10;;
65597;SDS011;52267;51.984;20.956;2023-04-26T06:15:28;6.30;;;3.30;;
65597;SDS011;52267;51.984;20.956;2023-04-26T06:17:57;12.00;;;4.80;;
65597;SDS011;52267;51.984;20.956;2023-04-26T06:20:24;9.70;;;5.10;;
65597;SDS011;52267;51.984;20.956;2023-04-26T06:22:51;8.80;;;3.80;;
65597;SDS011;52267;51.984;20.956;2023-04-26T06:25:19;10.50;;;3.90;;
65597;SDS011;52267;51.984;20.956;2023-04-26T06:27:46;12.30;;;4.40;;
65597;SDS011;52267;51.984;20.956;2023-04-26T06:30:13;7.90;;;4.60;;
65597;SDS011;52267;51.984;20.956;2023-04-26T06:32:40;9.00;;;3.90;;
65597;SDS011;52267;51.984;20.956;2023-04-26T06:35:08;10.80;;;4.30;;
65597;SDS011;52267;51.984;20.956;2023-04-26T06:37:36;7.20;;;3.70;;
65597;SDS011;52267;51.984;20.956;2023-04-26T06:40:04;6.90;;;3.50;;
65597;SDS011;52267;51.984;20.956;2023-04-26T06:42:32;7.80;;;3.60;;
65597;SDS011;52267;51.984;20.956;2023-04-26T06:44:59;11.10;;;4.70;;
65597;SDS011;52267;51.984;20.956;2023-04-26T06:47:29;7.90;;;3.70;;
65597;SDS011;52267;51.984;20.956;2023-04-26T06:49:56;9.10;;;3.80;;
65597;SDS011;52267;51.984;20.956;2023-04-26T06:52:23;6.60;;;3.40;;
65597;SDS011;52267;51.984;20.956;2023-04-26T06:54:50;10.80;;;3.90;;
65597;SDS011;52267;51.984;20.956;2023-04-26T06:57:17;8.50;;;4.30;;
65597;SDS011;52267;51.984;20.956;2023-04-26T06:59:44;7.70;;;3.70;;
65597;SDS011;52267;51.984;20.956;2023-04-26T07:02:11;10.80;;;4.30;;
65597;SDS011;52267;51.984;20.956;2023-04-26T07:04:39;6.60;;;3.40;;
65597;SDS011;52267;51.984;20.956;2023-04-26T07:07:06;5.10;;;3.30;;
65597;SDS011;52267;51.984;20.956;2023-04-26T07:09:33;7.30;;;3.60;;
65597;SDS011;52267;51.984;20.956;2023-04-26T07:11:59;8.70;;;3.10;;
65597;SDS011;52267;51.984;20.956;2023-04-26T07:14:27;9.30;;;3.50;;
65597;SDS011;52267;51.984;20.956;2023-04-26T07:16:53;8.30;;;3.30;;
65597;SDS011;52267;51.984;20.956;2023-04-26T07:19:20;7.40;;;4.30;;
65597;SDS011;52267;51.984;20.956;2023-04-26T07:21:48;10.30;;;3.60;;
65597;SDS011;52267;51.984;20.956;2023-04-26T07:24:16;8.40;;;3.30;;
65597;SDS011;52267;51.984;20.956;2023-04-26T07:26:44;6.10;;;2.50;;
65597;SDS011;52267;51.984;20.956;2023-04-26T07:29:11;6.60;;;3.30;;
65597;SDS011;52267;51.984;20.956;2023-04-26T07:31:38;7.50;;;3.90;;
65597;SDS011;52267;51.984;20.956;2023-04-26T07:34:05;10.30;;;4.20;;
65597;SDS011;52267;51.984;20.956;2023-04-26T07:36:32;7.10;;;3.60;;
65597;SDS011;52267;51.984;20.956;2023-04-26T07:38:59;6.80;;;3.40;;
65597;SDS011;52267;51.984;20.956;2023-04-26T07:41:27;9.30;;;3.20;;
65597;SDS011;52267;51.984;20.956;2023-04-26T07:43:54;9.70;;;3.60;;
65597;SDS011;52267;51.984;20.956;2023-04-26T07:46:21;8.00;;;3.70;;
65597;SDS011;52267;51.984;20.956;2023-04-26T07:48:48;8.80;;;4.40;;
65597;SDS011;52267;51.984;20.956;2023-04-26T07:51:15;5.60;;;3.50;;
65597;SDS011;52267;51.984;20.956;2023-04-26T07:53:42;11.90;;;3.90;;
65597;SDS011;52267;51.984;20.956;2023-04-26T07:56:09;10.50;;;3.90;;
65597;SDS011;52267;51.984;20.956;2023-04-26T07:58:37;7.20;;;4.40;;
65597;SDS011;52267;51.984;20.956;2023-04-26T08:01:07;7.10;;;3.40;;
65597;SDS011;52267;51.984;20.956;2023-04-26T08:03:35;7.40;;;3.80;;
65597;SDS011;52267;51.984;20.956;2023-04-26T08:06:02;8.80;;;3.10;;
65597;SDS011;52267;51.984;20.956;2023-04-26T08:08:29;10.10;;;4.30;;
65597;SDS011;52267;51.984;20.956;2023-04-26T08:10:57;6.70;;;3.90;;
65597;SDS011;52267;51.984;20.956;2023-04-26T08:13:24;10.80;;;3.90;;
65597;SDS011;52267;51.984;20.956;2023-04-26T08:15:51;6.60;;;3.30;;
65597;SDS011;52267;51.984;20.956;2023-04-26T08:18:19;6.80;;;4.00;;
65597;SDS011;52267;51.984;20.956;2023-04-26T08:20:46;7.20;;;3.80;;
65597;SDS011;52267;51.984;20.956;2023-04-26T08:23:13;10.30;;;3.90;;
65597;SDS011;52267;51.984;20.956;2023-04-26T08:25:40;7.10;;;3.50;;
65597;SDS011;52267;51.984;20.956;2023-04-26T08:28:07;6.00;;;3.10;;
65597;SDS011;52267;51.984;20.956;2023-04-26T08:30:34;5.50;;;3.40;;
65597;SDS011;52267;51.984;20.956;2023-04-26T08:33:02;5.40;;;3.20;;
65597;SDS011;52267;51.984;20.956;2023-04-26T08:35:29;6.00;;;3.00;;
65597;SDS011;52267;51.984;20.956;2023-04-26T08:37:56;9.30;;;3.70;;
65597;SDS011;52267;51.984;20.956;2023-04-26T08:40:24;7.30;;;2.80;;
65597;SDS011;52267;51.984;20.956;2023-04-26T08:42:51;5.60;;;3.20;;
65597;SDS011;52267;51.984;20.956;2023-04-26T08:45:20;8.40;;;3.30;;
65597;SDS011;52267;51.984;20.956;2023-04-26T08:47:52;7.60;;;3.10;;
65597;SDS011;52267;51.984;20.956;2023-04-26T08:50:24;6.50;;;2.90;;
65597;SDS011;52267;51.984;20.956;2023-04-26T08:52:51;6.00;;;2.10;;
65597;SDS011;52267;51.984;20.956;2023-04-26T08:55:19;4.80;;;2.30;;
65597;SDS011;52267;51.984;20.956;2023-04-26T08:57:48;5.90;;;2.30;;
65597;SDS011;52267;51.984;20.956;2023-04-26T09:00:16;6.50;;;2.50;;
65597;SDS011;52267;51.984;20.956;2023-04-26T09:02:47;9.40;;;3.30;;
65597;SDS011;52267;51.984;20.956;2023-04-26T09:05:15;7.80;;;2.20;;
65597;SDS011;52267;51.984;20.956;2023-04-26T09:07:46;4.60;;;2.00;;
65597;SDS011;52267;51.984;20.956;2023-04-26T09:10:17;8.00;;;2.50;;
65597;SDS011;52267;51.984;20.956;2023-04-26T09:12:51;7.90;;;2.50;;
65597;SDS011;52267;51.984;20.956;2023-04-26T09:15:23;4.60;;;1.80;;
65597;SDS011;52267;51.984;20.956;2023-04-26T09:17:52;7.20;;;2.30;;
65597;SDS011;52267;51.984;20.956;2023-04-26T09:20:28;4.10;;;2.00;;
65597;SDS011;52267;51.984;20.956;2023-04-26T09:23:07;7.10;;;2.50;;
65597;SDS011;52267;51.984;20.956;2023-04-26T09:25:36;4.50;;;1.70;;
65597;SDS011;52267;51.984;20.956;2023-04-26T09:28:18;8.40;;;2.50;;
65597;SDS011;52267;51.984;20.956;2023-04-26T09:30:47;4.70;;;1.50;;
65597;SDS011;52267;51.984;20.956;2023-04-26T09:33:14;5.40;;;1.70;;
65597;SDS011;52267;51.984;20.956;2023-04-26T09:35:42;4.20;;;1.60;;
65597;SDS011;52267;51.984;20.956;2023-04-26T09:38:13;4.90;;;1.90;;
65597;SDS011;52267;51.984;20.956;2023-04-26T09:40:46;5.50;;;2.00;;
65597;SDS011;52267;51.984;20.956;2023-04-26T09:43:21;4.40;;;2.00;;
65597;SDS011;52267;51.984;20.956;2023-04-26T09:45:53;4.30;;;1.70;;
65597;SDS011;52267;51.984;20.956;2023-04-26T09:48:22;5.10;;;2.00;;
65597;SDS011;52267;51.984;20.956;2023-04-26T09:50:55;4.20;;;1.90;;
65597;SDS011;52267;51.984;20.956;2023-04-26T09:53:40;3.80;;;1.60;;
65597;SDS011;52267;51.984;20.956;2023-04-26T09:56:09;6.30;;;2.10;;
65597;SDS011;52267;51.984;20.956;2023-04-26T10:01:10;4.90;;;2.00;;
65597;SDS011;52267;51.984;20.956;2023-04-26T10:03:37;8.20;;;2.40;;
65597;SDS011;52267;51.984;20.956;2023-04-26T10:06:05;7.10;;;1.90;;
65597;SDS011;52267;51.984;20.956;2023-04-26T10:08:32;3.90;;;1.70;;
65597;SDS011;52267;51.984;20.956;2023-04-26T10:11:00;5.90;;;2.20;;
65597;SDS011;52267;51.984;20.956;2023-04-26T10:13:33;3.80;;;1.50;;
65597;SDS011;52267;51.984;20.956;2023-04-26T10:16:01;6.60;;;1.70;;
65597;SDS011;52267;51.984;20.956;2023-04-26T10:18:30;7.40;;;2.10;;
65597;SDS011;52267;51.984;20.956;2023-04-26T10:21:20;3.40;;;1.80;;
65597;SDS011;52267;51.984;20.956;2023-04-26T10:23:50;7.80;;;2.40;;
65597;SDS011;52267;51.984;20.956;2023-04-26T10:26:46;4.60;;;1.60;;
65597;SDS011;52267;51.984;20.956;2023-04-26T10:29:18;4.40;;;2.60;;
65597;SDS011;52267;51.984;20.956;2023-04-26T10:34:33;6.60;;;2.00;;
65597;SDS011;52267;51.984;20.956;2023-04-26T10:37:13;6.10;;;2.20;;
65597;SDS011;52267;51.984;20.956;2023-04-26T10:39:42;5.20;;;1.70;;
65597;SDS011;52267;51.984;20.956;2023-04-26T10:42:19;9.10;;;3.00;;
65597;SDS011;52267;51.984;20.956;2023-04-26T10:44:54;4.80;;;2.10;;
65597;SDS011;52267;51.984;20.956;2023-04-26T10:47:34;4.30;;;1.70;;
65597;SDS011;52267;51.984;20.956;2023-04-26T10:50:10;5.90;;;2.40;;
65597;SDS011;52267;51.984;20.956;2023-04-26T10:53:04;5.00;;;1.70;;
65597;SDS011;52267;51.984;20.956;2023-04-26T10:58:30;5.60;;;1.40;;
65597;SDS011;52267;51.984;20.956;2023-04-26T11:01:25;5.10;;;1.80;;
65597;SDS011;52267;51.984;20.956;2023-04-26T11:06:26;5.20;;;1.80;;
65597;SDS011;52267;51.984;20.956;2023-04-26T11:08:58;7.50;;;2.00;;
65597;SDS011;52267;51.984;20.956;2023-04-26T11:11:25;4.60;;;1.80;;
65597;SDS011;52267;51.984;20.956;2023-04-26T11:13:55;4.00;;;2.00;;
65597;SDS011;52267;51.984;20.956;2023-04-26T11:16:27;6.00;;;1.90;;
65597;SDS011;52267;51.984;20.956;2023-04-26T11:18:54;4.20;;;1.80;;
65597;SDS011;52267;51.984;20.956;2023-04-26T11:21:22;5.10;;;2.20;;
65597;SDS011;52267;51.984;20.956;2023-04-26T11:23:53;4.50;;;1.90;;
65597;SDS011;52267;51.984;20.956;2023-04-26T11:26:20;7.60;;;2.20;;
65597;SDS011;52267;51.984;20.956;2023-04-26T11:28:48;5.50;;;2.30;;
65597;SDS011;52267;51.984;20.956;2023-04-26T11:31:17;4.30;;;1.60;;
65597;SDS011;52267;51.984;20.956;2023-04-26T11:33:44;7.10;;;2.20;;
65597;SDS011;52267;51.984;20.956;2023-04-26T11:36:12;6.80;;;2.00;;
65597;SDS011;52267;51.984;20.956;2023-04-26T11:38:39;6.50;;;1.80;;
65597;SDS011;52267;51.984;20.956;2023-04-26T11:41:07;5.40;;;2.20;;
65597;SDS011;52267;51.984;20.956;2023-04-26T11:43:35;8.50;;;2.50;;
65597;SDS011;52267;51.984;20.956;2023-04-26T11:46:03;4.00;;;1.80;;
65597;SDS011;52267;51.984;20.956;2023-04-26T11:48:31;7.20;;;2.40;;
65597;SDS011;52267;51.984;20.956;2023-04-26T11:51:02;6.00;;;2.10;;
65597;SDS011;52267;51.984;20.956;2023-04-26T11:53:42;7.60;;;2.20;;
65597;SDS011;52267;51.984;20.956;2023-04-26T11:56:16;11.90;;;2.40;;
65597;SDS011;52267;51.984;20.956;2023-04-26T11:58:49;5.00;;;1.90;;
65597;SDS011;52267;51.984;20.956;2023-04-26T12:01:27;3.10;;;1.40;;
65597;SDS011;52267;51.984;20.956;2023-04-26T12:03:57;5.30;;;2.20;;
65597;SDS011;52267;51.984;20.956;2023-04-26T12:06:40;4.40;;;1.70;;
65597;SDS011;52267;51.984;20.956;2023-04-26T12:09:08;7.20;;;2.50;;
65597;SDS011;52267;51.984;20.956;2023-04-26T12:11:37;4.50;;;2.10;;
65597;SDS011;52267;51.984;20.956;2023-04-26T12:14:05;5.60;;;2.20;;
65597;SDS011;52267;51.984;20.956;2023-04-26T12:16:36;5.10;;;2.00;;
65597;SDS011;52267;51.984;20.956;2023-04-26T12:19:04;7.80;;;2.00;;
65597;SDS011;52267;51.984;20.956;2023-04-26T12:21:42;5.80;;;2.30;;
65597;SDS011;52267;51.984;20.956;2023-04-26T12:24:23;5.80;;;2.20;;
65597;SDS011;52267;51.984;20.956;2023-04-26T12:26:51;6.40;;;2.10;;
65597;SDS011;52267;51.984;20.956;2023-04-26T12:29:18;5.40;;;1.70;;
65597;SDS011;52267;51.984;20.956;2023-04-26T12:31:46;4.30;;;2.50;;
65597;SDS011;52267;51.984;20.956;2023-04-26T12:34:13;5.70;;;1.90;;
65597;SDS011;52267;51.984;20.956;2023-04-26T12:36:41;5.60;;;2.10;;
65597;SDS011;52267;51.984;20.956;2023-04-26T12:39:11;5.40;;;2.10;;
65597;SDS011;52267;51.984;20.956;2023-04-26T12:41:40;5.50;;;2.20;;
65597;SDS011;52267;51.984;20.956;2023-04-26T12:44:09;4.30;;;2.20;;
65597;SDS011;52267;51.984;20.956;2023-04-26T12:46:37;4.40;;;2.20;;
65597;SDS011;52267;51.984;20.956;2023-04-26T12:49:04;8.50;;;2.90;;
65597;SDS011;52267;51.984;20.956;2023-04-26T12:51:31;6.70;;;2.90;;
65597;SDS011;52267;51.984;20.956;2023-04-26T12:53:59;7.00;;;3.20;;
65597;SDS011;52267;51.984;20.956;2023-04-26T12:56:28;4.60;;;2.00;;
65597;SDS011;52267;51.984;20.956;2023-04-26T12:58:55;6.00;;;2.10;;
65597;SDS011;52267;51.984;20.956;2023-04-26T13:01:22;8.10;;;2.50;;
65597;SDS011;52267;51.984;20.956;2023-04-26T13:03:49;4.20;;;2.00;;
65597;SDS011;52267;51.984;20.956;2023-04-26T13:06:16;6.50;;;2.80;;
65597;SDS011;52267;51.984;20.956;2023-04-26T13:08:44;7.80;;;3.10;;
65597;SDS011;52267;51.984;20.956;2023-04-26T13:11:11;9.40;;;2.90;;
65597;SDS011;52267;51.984;20.956;2023-04-26T13:13:38;9.50;;;3.20;;
65597;SDS011;52267;51.984;20.956;2023-04-26T13:16:05;5.30;;;2.40;;
65597;SDS011;52267;51.984;20.956;2023-04-26T13:18:32;5.90;;;3.10;;
65597;SDS011;52267;51.984;20.956;2023-04-26T13:20:59;6.20;;;2.40;;
65597;SDS011;52267;51.984;20.956;2023-04-26T13:23:27;6.90;;;2.10;;
65597;SDS011;52267;51.984;20.956;2023-04-26T13:25:54;4.70;;;2.00;;
65597;SDS011;52267;51.984;20.956;2023-04-26T13:28:21;5.80;;;2.70;;
65597;SDS011;52267;51.984;20.956;2023-04-26T13:30:48;5.50;;;2.60;;
65597;SDS011;52267;51.984;20.956;2023-04-26T13:33:15;8.20;;;2.70;;
65597;SDS011;52267;51.984;20.956;2023-04-26T13:35:42;4.50;;;2.30;;
65597;SDS011;52267;51.984;20.956;2023-04-26T13:38:09;6.80;;;2.40;;
65597;SDS011;52267;51.984;20.956;2023-04-26T13:40:37;7.60;;;2.00;;
65597;SDS011;52267;51.984;20.956;2023-04-26T13:43:04;7.50;;;1.60;;
65597;SDS011;52267;51.984;20.956;2023-04-26T13:45:31;4.60;;;1.90;;
65597;SDS011;52267;51.984;20.956;2023-04-26T13:47:58;4.80;;;2.10;;
65597;SDS011;52267;51.984;20.956;2023-04-26T13:50:25;3.80;;;2.00;;
65597;SDS011;52267;51.984;20.956;2023-04-26T13:52:52;5.50;;;2.40;;
65597;SDS011;52267;51.984;20.956;2023-04-26T13:55:19;10.20;;;2.20;;
65597;SDS011;52267;51.984;20.956;2023-04-26T13:57:46;4.20;;;1.40;;
65597;SDS011;52267;51.984;20.956;2023-04-26T14:00:14;7.20;;;3.10;;
65597;SDS011;52267;51.984;20.956;2023-04-26T14:02:41;5.00;;;2.30;;
65597;SDS011;52267;51.984;20.956;2023-04-26T14:05:08;3.70;;;1.80;;
65597;SDS011;52267;51.984;20.956;2023-04-26T14:07:35;7.20;;;2.60;;
65597;SDS011;52267;51.984;20.956;2023-04-26T14:10:03;7.90;;;2.20;;
65597;SDS011;52267;51.984;20.956;2023-04-26T14:12:30;5.80;;;2.50;;
65597;SDS011;52267;51.984;20.956;2023-04-26T14:14:57;5.20;;;2.30;;
65597;SDS011;52267;51.984;20.956;2023-04-26T14:17:25;5.90;;;2.10;;
65597;SDS011;52267;51.984;20.956;2023-04-26T14:19:55;5.90;;;2.00;;
65597;SDS011;52267;51.984;20.956;2023-04-26T14:22:22;5.10;;;2.70;;
65597;SDS011;52267;51.984;20.956;2023-04-26T14:24:49;5.40;;;2.30;;
65597;SDS011;52267;51.984;20.956;2023-04-26T14:27:17;6.30;;;2.40;;
65597;SDS011;52267;51.984;20.956;2023-04-26T14:29:44;5.10;;;2.30;;
65597;SDS011;52267;51.984;20.956;2023-04-26T14:32:11;5.80;;;2.20;;
65597;SDS011;52267;51.984;20.956;2023-04-26T14:34:38;6.00;;;2.30;;
65597;SDS011;52267;51.984;20.956;2023-04-26T14:37:05;4.90;;;2.40;;
65597;SDS011;52267;51.984;20.956;2023-04-26T14:39:33;7.10;;;2.50;;
65597;SDS011;52267;51.984;20.956;2023-04-26T14:42:00;4.30;;;1.90;;
65597;SDS011;52267;51.984;20.956;2023-04-26T14:44:28;5.90;;;2.80;;
65597;SDS011;52267;51.984;20.956;2023-04-26T14:46:56;5.00;;;2.10;;
65597;SDS011;52267;51.984;20.956;2023-04-26T14:49:23;6.50;;;2.30;;